sensor_id;sensor_type;location;lat;lon;timestamp;P1;durP1;ratioP1;P2;durP2;ratioP2
13927;SDS011;7036;50.834;4.718;2022-09-14T00:01:41;1.33;;;1.23;;
13927;SDS011;7036;50.834;4.718;2022-09-14T00:04:15;1.40;;;1.30;;
13927;SDS011;7036;50.834;4.718;2022-09-14T00:06:42;1.23;;;1.13;;
13927;SDS011;7036;50.834;4.718;2022-09-14T00:09:12;1.40;;;1.30;;
13927;SDS011;7036;50.834;4.718;2022-09-14T00:11:38;1.60;;;1.23;;
13927;SDS011;7036;50.834;4.718;2022-09-14T00:14:05;1.60;;;1.30;;
13927;SDS011;7036;50.834;4.718;2022-09-14T00:16:35;1.60;;;1.17;;
13927;SDS011;7036;50.834;4.718;2022-09-14T00:18:59;1.53;;;1.20;;
13927;SDS011;7036;50.834;4.718;2022-09-14T00:21:27;1.20;;;1.10;;
13927;SDS011;7036;50.834;4.718;2022-09-14T00:23:52;2.53;;;1.17;;
13927;SDS011;7036;50.834;4.718;2022-09-14T00:26:20;1.03;;;0.90;;
13927;SDS011;7036;50.834;4.718;2022-09-14T00:28:48;1.40;;;1.30;;
13927;SDS011;7036;50.834;4.718;2022-09-14T00:31:13;1.63;;;0.97;;
13927;SDS011;7036;50.834;4.718;2022-09-14T00:33:40;1.63;;;1.40;;
13927;SDS011;7036;50.834;4.718;2022-09-14T00:36:08;1.60;;;1.30;;
13927;SDS011;7036;50.834;4.718;2022-09-14T00:38:34;1.57;;;1.20;;
13927;SDS011;7036;50.834;4.718;2022-09-14T00:41:01;1.53;;;1.00;;
13927;SDS011;7036;50.834;4.718;2022-09-14T00:43:28;2.05;;;1.67;;
13927;SDS011;7036;50.834;4.718;2022-09-14T00:45:55;1.60;;;1.33;;
13927;SDS011;7036;50.834;4.718;2022-09-14T00:48:23;1.30;;;1.07;;
13927;SDS011;7036;50.834;4.718;2022-09-14T00:50:49;1.63;;;1.43;;
13927;SDS011;7036;50.834;4.718;2022-09-14T00:53:15;1.23;;;1.10;;
13927;SDS011;7036;50.834;4.718;2022-09-14T00:55:42;1.60;;;1.30;;
13927;SDS011;7036;50.834;4.718;2022-09-14T00:58:09;4.47;;;1.47;;
13927;SDS011;7036;50.834;4.718;2022-09-14T01:00:37;1.67;;;1.40;;
13927;SDS011;7036;50.834;4.718;2022-09-14T01:03:04;1.23;;;1.00;;
13927;SDS011;7036;50.834;4.718;2022-09-14T01:05:38;1.57;;;1.07;;
13927;SDS011;7036;50.834;4.718;2022-09-14T01:08:05;0.80;;;0.80;;
13927;SDS011;7036;50.834;4.718;2022-09-14T01:18:42;1.17;;;1.07;;
13927;SDS011;7036;50.834;4.718;2022-09-14T01:21:10;1.10;;;1.00;;
13927;SDS011;7036;50.834;4.718;2022-09-14T01:29:29;1.20;;;1.10;;
13927;SDS011;7036;50.834;4.718;2022-09-14T01:31:58;2.20;;;1.10;;
13927;SDS011;7036;50.834;4.718;2022-09-14T01:37:53;0.90;;;0.90;;
13927;SDS011;7036;50.834;4.718;2022-09-14T01:39:36;2.43;;;0.90;;
13927;SDS011;7036;50.834;4.718;2022-09-14T01:42:03;1.23;;;1.13;;
13927;SDS011;7036;50.834;4.718;2022-09-14T01:44:31;1.53;;;1.00;;
13927;SDS011;7036;50.834;4.718;2022-09-14T01:47:00;1.43;;;1.23;;
13927;SDS011;7036;50.834;4.718;2022-09-14T01:49:26;1.50;;;1.07;;
13927;SDS011;7036;50.834;4.718;2022-09-14T01:54:39;1.53;;;1.10;;
13927;SDS011;7036;50.834;4.718;2022-09-14T01:57:22;1.60;;;1.30;;
13927;SDS011;7036;50.834;4.718;2022-09-14T01:59:47;1.20;;;1.10;;
13927;SDS011;7036;50.834;4.718;2022-09-14T02:02:19;1.87;;;1.03;;
13927;SDS011;7036;50.834;4.718;2022-09-14T02:04:49;0.93;;;0.93;;
13927;SDS011;7036;50.834;4.718;2022-09-14T02:07:23;1.63;;;1.00;;
13927;SDS011;7036;50.834;4.718;2022-09-14T02:09:50;1.20;;;1.10;;
13927;SDS011;7036;50.834;4.718;2022-09-14T02:12:17;1.80;;;1.10;;
13927;SDS011;7036;50.834;4.718;2022-09-14T02:14:44;1.07;;;1.03;;
13927;SDS011;7036;50.834;4.718;2022-09-14T02:17:11;1.23;;;0.90;;
13927;SDS011;7036;50.834;4.718;2022-09-14T02:22:17;1.33;;;0.90;;
13927;SDS011;7036;50.834;4.718;2022-09-14T02:24:45;2.50;;;1.13;;
13927;SDS011;7036;50.834;4.718;2022-09-14T02:27:11;1.10;;;0.90;;
13927;SDS011;7036;50.834;4.718;2022-09-14T02:29:38;1.77;;;1.20;;
13927;SDS011;7036;50.834;4.718;2022-09-14T02:37:56;2.03;;;1.27;;
13927;SDS011;7036;50.834;4.718;2022-09-14T02:43:09;0.77;;;0.77;;
13927;SDS011;7036;50.834;4.718;2022-09-14T02:51:32;0.97;;;0.97;;
13927;SDS011;7036;50.834;4.718;2022-09-14T02:54:16;0.90;;;0.90;;
13927;SDS011;7036;50.834;4.718;2022-09-14T02:56:48;1.20;;;0.87;;
13927;SDS011;7036;50.834;4.718;2022-09-14T02:59:15;1.57;;;0.93;;
13927;SDS011;7036;50.834;4.718;2022-09-14T03:01:42;1.43;;;0.77;;
13927;SDS011;7036;50.834;4.718;2022-09-14T03:04:09;2.50;;;1.23;;
13927;SDS011;7036;50.834;4.718;2022-09-14T03:06:37;1.60;;;1.10;;
13927;SDS011;7036;50.834;4.718;2022-09-14T03:09:04;2.30;;;0.93;;
13927;SDS011;7036;50.834;4.718;2022-09-14T03:11:31;1.77;;;0.97;;
13927;SDS011;7036;50.834;4.718;2022-09-14T03:13:58;1.57;;;1.00;;
13927;SDS011;7036;50.834;4.718;2022-09-14T03:16:24;1.30;;;1.07;;
13927;SDS011;7036;50.834;4.718;2022-09-14T03:18:51;0.63;;;0.63;;
13927;SDS011;7036;50.834;4.718;2022-09-14T03:21:18;1.10;;;0.90;;
13927;SDS011;7036;50.834;4.718;2022-09-14T03:23:46;0.80;;;0.77;;
13927;SDS011;7036;50.834;4.718;2022-09-14T03:26:14;2.97;;;1.03;;
13927;SDS011;7036;50.834;4.718;2022-09-14T03:28:39;1.13;;;0.90;;
13927;SDS011;7036;50.834;4.718;2022-09-14T03:31:07;1.17;;;0.90;;
13927;SDS011;7036;50.834;4.718;2022-09-14T03:33:33;1.00;;;0.80;;
13927;SDS011;7036;50.834;4.718;2022-09-14T03:36:07;1.40;;;1.00;;
13927;SDS011;7036;50.834;4.718;2022-09-14T03:38:27;1.17;;;1.03;;
13927;SDS011;7036;50.834;4.718;2022-09-14T03:40:54;2.87;;;0.90;;
13927;SDS011;7036;50.834;4.718;2022-09-14T03:43:21;2.17;;;0.80;;
13927;SDS011;7036;50.834;4.718;2022-09-14T03:45:48;2.00;;;0.80;;
13927;SDS011;7036;50.834;4.718;2022-09-14T03:48:16;1.93;;;1.00;;
13927;SDS011;7036;50.834;4.718;2022-09-14T03:50:42;2.10;;;0.70;;
13927;SDS011;7036;50.834;4.718;2022-09-14T03:53:09;1.27;;;1.00;;
13927;SDS011;7036;50.834;4.718;2022-09-14T03:55:38;2.60;;;0.90;;
13927;SDS011;7036;50.834;4.718;2022-09-14T03:58:03;1.00;;;0.70;;
13927;SDS011;7036;50.834;4.718;2022-09-14T04:00:30;1.43;;;0.90;;
13927;SDS011;7036;50.834;4.718;2022-09-14T04:02:58;1.20;;;1.10;;
13927;SDS011;7036;50.834;4.718;2022-09-14T04:05:24;1.23;;;1.13;;
13927;SDS011;7036;50.834;4.718;2022-09-14T04:07:51;1.70;;;1.00;;
13927;SDS011;7036;50.834;4.718;2022-09-14T04:10:18;2.53;;;1.10;;
13927;SDS011;7036;50.834;4.718;2022-09-14T04:12:45;1.43;;;1.07;;
13927;SDS011;7036;50.834;4.718;2022-09-14T04:15:12;2.13;;;1.13;;
13927;SDS011;7036;50.834;4.718;2022-09-14T04:17:38;1.73;;;0.87;;
13927;SDS011;7036;50.834;4.718;2022-09-14T04:20:06;0.70;;;0.70;;
13927;SDS011;7036;50.834;4.718;2022-09-14T04:22:33;1.53;;;0.93;;
13927;SDS011;7036;50.834;4.718;2022-09-14T04:25:02;2.00;;;1.17;;
13927;SDS011;7036;50.834;4.718;2022-09-14T04:27:29;1.53;;;1.23;;
13927;SDS011;7036;50.834;4.718;2022-09-14T04:29:55;1.67;;;1.23;;
13927;SDS011;7036;50.834;4.718;2022-09-14T04:32:24;4.63;;;0.97;;
13927;SDS011;7036;50.834;4.718;2022-09-14T04:34:56;0.97;;;0.87;;
13927;SDS011;7036;50.834;4.718;2022-09-14T04:37:29;0.80;;;0.70;;
13927;SDS011;7036;50.834;4.718;2022-09-14T04:39:56;1.03;;;0.80;;
13927;SDS011;7036;50.834;4.718;2022-09-14T04:42:23;1.73;;;1.10;;
13927;SDS011;7036;50.834;4.718;2022-09-14T04:44:53;3.23;;;1.00;;
13927;SDS011;7036;50.834;4.718;2022-09-14T04:47:20;2.27;;;0.87;;
13927;SDS011;7036;50.834;4.718;2022-09-14T04:49:50;2.23;;;0.93;;
13927;SDS011;7036;50.834;4.718;2022-09-14T04:52:21;1.03;;;0.87;;
13927;SDS011;7036;50.834;4.718;2022-09-14T04:54:54;1.37;;;1.13;;
13927;SDS011;7036;50.834;4.718;2022-09-14T04:57:24;1.90;;;1.17;;
13927;SDS011;7036;50.834;4.718;2022-09-14T04:59:51;3.23;;;1.30;;
13927;SDS011;7036;50.834;4.718;2022-09-14T05:02:18;3.07;;;1.07;;
13927;SDS011;7036;50.834;4.718;2022-09-14T05:04:45;1.67;;;1.10;;
13927;SDS011;7036;50.834;4.718;2022-09-14T05:07:12;1.43;;;1.30;;
13927;SDS011;7036;50.834;4.718;2022-09-14T05:09:39;2.27;;;0.93;;
13927;SDS011;7036;50.834;4.718;2022-09-14T05:12:06;1.13;;;1.00;;
13927;SDS011;7036;50.834;4.718;2022-09-14T05:14:33;2.63;;;1.13;;
13927;SDS011;7036;50.834;4.718;2022-09-14T05:17:00;1.87;;;0.90;;
13927;SDS011;7036;50.834;4.718;2022-09-14T05:19:27;1.87;;;1.37;;
13927;SDS011;7036;50.834;4.718;2022-09-14T05:21:54;2.07;;;1.10;;
13927;SDS011;7036;50.834;4.718;2022-09-14T05:24:21;1.67;;;1.10;;
13927;SDS011;7036;50.834;4.718;2022-09-14T05:26:50;1.57;;;0.90;;
13927;SDS011;7036;50.834;4.718;2022-09-14T05:29:15;1.87;;;1.30;;
13927;SDS011;7036;50.834;4.718;2022-09-14T05:31:42;1.40;;;0.90;;
13927;SDS011;7036;50.834;4.718;2022-09-14T05:34:09;1.33;;;0.90;;
13927;SDS011;7036;50.834;4.718;2022-09-14T05:36:36;1.07;;;0.90;;
13927;SDS011;7036;50.834;4.718;2022-09-14T05:39:02;1.90;;;1.00;;
13927;SDS011;7036;50.834;4.718;2022-09-14T05:41:29;1.53;;;1.03;;
13927;SDS011;7036;50.834;4.718;2022-09-14T05:43:59;1.17;;;1.07;;
13927;SDS011;7036;50.834;4.718;2022-09-14T05:46:23;1.47;;;0.97;;
13927;SDS011;7036;50.834;4.718;2022-09-14T05:48:50;1.67;;;1.00;;
13927;SDS011;7036;50.834;4.718;2022-09-14T05:51:19;1.53;;;1.27;;
13927;SDS011;7036;50.834;4.718;2022-09-14T05:53:48;1.17;;;0.93;;
13927;SDS011;7036;50.834;4.718;2022-09-14T05:56:15;1.30;;;1.20;;
13927;SDS011;7036;50.834;4.718;2022-09-14T05:58:41;1.87;;;1.43;;
13927;SDS011;7036;50.834;4.718;2022-09-14T06:01:09;1.30;;;1.20;;
13927;SDS011;7036;50.834;4.718;2022-09-14T06:03:36;3.70;;;1.10;;
13927;SDS011;7036;50.834;4.718;2022-09-14T06:06:03;2.57;;;1.20;;
13927;SDS011;7036;50.834;4.718;2022-09-14T06:08:30;2.30;;;1.07;;
13927;SDS011;7036;50.834;4.718;2022-09-14T06:11:01;2.07;;;1.03;;
13927;SDS011;7036;50.834;4.718;2022-09-14T06:13:23;2.50;;;1.30;;
13927;SDS011;7036;50.834;4.718;2022-09-14T06:15:50;3.67;;;1.30;;
13927;SDS011;7036;50.834;4.718;2022-09-14T06:18:18;5.70;;;1.43;;
13927;SDS011;7036;50.834;4.718;2022-09-14T06:20:51;2.10;;;1.00;;
13927;SDS011;7036;50.834;4.718;2022-09-14T06:23:16;1.33;;;0.90;;
13927;SDS011;7036;50.834;4.718;2022-09-14T06:25:43;2.50;;;1.40;;
13927;SDS011;7036;50.834;4.718;2022-09-14T06:28:09;2.00;;;1.13;;
13927;SDS011;7036;50.834;4.718;2022-09-14T06:30:40;3.03;;;1.40;;
13927;SDS011;7036;50.834;4.718;2022-09-14T06:33:05;4.13;;;1.27;;
13927;SDS011;7036;50.834;4.718;2022-09-14T06:35:31;2.57;;;1.70;;
13927;SDS011;7036;50.834;4.718;2022-09-14T06:37:58;5.73;;;1.70;;
13927;SDS011;7036;50.834;4.718;2022-09-14T06:40:25;1.77;;;1.13;;
13927;SDS011;7036;50.834;4.718;2022-09-14T06:42:52;5.27;;;1.10;;
13927;SDS011;7036;50.834;4.718;2022-09-14T06:45:19;2.13;;;1.40;;
13927;SDS011;7036;50.834;4.718;2022-09-14T06:47:47;3.03;;;1.60;;
13927;SDS011;7036;50.834;4.718;2022-09-14T06:50:14;4.10;;;1.47;;
13927;SDS011;7036;50.834;4.718;2022-09-14T06:52:41;3.27;;;1.40;;
13927;SDS011;7036;50.834;4.718;2022-09-14T06:55:08;5.70;;;1.23;;
13927;SDS011;7036;50.834;4.718;2022-09-14T06:57:35;3.30;;;1.40;;
13927;SDS011;7036;50.834;4.718;2022-09-14T07:00:05;3.50;;;1.60;;
13927;SDS011;7036;50.834;4.718;2022-09-14T07:02:53;2.40;;;1.30;;
13927;SDS011;7036;50.834;4.718;2022-09-14T07:05:20;4.10;;;1.80;;
13927;SDS011;7036;50.834;4.718;2022-09-14T07:07:56;4.90;;;2.43;;
13927;SDS011;7036;50.834;4.718;2022-09-14T07:10:31;7.30;;;1.90;;
13927;SDS011;7036;50.834;4.718;2022-09-14T07:13:03;5.20;;;1.67;;
13927;SDS011;7036;50.834;4.718;2022-09-14T07:15:30;3.00;;;1.40;;
13927;SDS011;7036;50.834;4.718;2022-09-14T07:17:57;3.60;;;1.47;;
13927;SDS011;7036;50.834;4.718;2022-09-14T07:20:34;3.73;;;1.60;;
13927;SDS011;7036;50.834;4.718;2022-09-14T07:23:10;3.90;;;1.90;;
13927;SDS011;7036;50.834;4.718;2022-09-14T07:25:40;3.27;;;1.73;;
13927;SDS011;7036;50.834;4.718;2022-09-14T07:28:14;3.23;;;1.83;;
13927;SDS011;7036;50.834;4.718;2022-09-14T07:30:43;3.53;;;1.77;;
13927;SDS011;7036;50.834;4.718;2022-09-14T07:33:14;7.23;;;2.37;;
13927;SDS011;7036;50.834;4.718;2022-09-14T07:35:41;9.47;;;2.40;;
13927;SDS011;7036;50.834;4.718;2022-09-14T07:38:08;6.93;;;2.70;;
13927;SDS011;7036;50.834;4.718;2022-09-14T07:40:35;6.87;;;3.33;;
13927;SDS011;7036;50.834;4.718;2022-09-14T07:43:02;13.13;;;4.35;;
13927;SDS011;7036;50.834;4.718;2022-09-14T07:45:29;23.00;;;6.63;;
13927;SDS011;7036;50.834;4.718;2022-09-14T07:47:56;12.38;;;5.18;;
13927;SDS011;7036;50.834;4.718;2022-09-14T07:50:23;11.40;;;4.83;;
13927;SDS011;7036;50.834;4.718;2022-09-14T07:52:50;13.90;;;5.43;;
13927;SDS011;7036;50.834;4.718;2022-09-14T07:55:17;17.00;;;5.53;;
13927;SDS011;7036;50.834;4.718;2022-09-14T07:57:44;14.68;;;5.18;;
13927;SDS011;7036;50.834;4.718;2022-09-14T08:00:12;11.38;;;4.72;;
13927;SDS011;7036;50.834;4.718;2022-09-14T08:02:39;8.77;;;4.13;;
13927;SDS011;7036;50.834;4.718;2022-09-14T08:05:07;10.27;;;4.53;;
13927;SDS011;7036;50.834;4.718;2022-09-14T08:07:34;8.03;;;4.50;;
13927;SDS011;7036;50.834;4.718;2022-09-14T08:10:01;12.63;;;5.05;;
13927;SDS011;7036;50.834;4.718;2022-09-14T08:12:28;6.87;;;3.60;;
13927;SDS011;7036;50.834;4.718;2022-09-14T08:14:57;11.18;;;4.10;;
13927;SDS011;7036;50.834;4.718;2022-09-14T08:17:24;8.07;;;3.90;;
13927;SDS011;7036;50.834;4.718;2022-09-14T08:19:51;8.90;;;4.10;;
13927;SDS011;7036;50.834;4.718;2022-09-14T08:22:18;11.18;;;4.10;;
13927;SDS011;7036;50.834;4.718;2022-09-14T08:24:46;6.93;;;4.00;;
13927;SDS011;7036;50.834;4.718;2022-09-14T08:27:13;6.13;;;3.70;;
13927;SDS011;7036;50.834;4.718;2022-09-14T08:29:40;8.40;;;3.77;;
13927;SDS011;7036;50.834;4.718;2022-09-14T08:32:09;8.65;;;4.00;;
13927;SDS011;7036;50.834;4.718;2022-09-14T08:34:34;6.00;;;3.37;;
13927;SDS011;7036;50.834;4.718;2022-09-14T08:37:02;10.43;;;4.10;;
13927;SDS011;7036;50.834;4.718;2022-09-14T08:39:29;6.17;;;3.57;;
13927;SDS011;7036;50.834;4.718;2022-09-14T08:41:56;8.73;;;3.97;;
13927;SDS011;7036;50.834;4.718;2022-09-14T08:44:24;8.48;;;3.88;;
13927;SDS011;7036;50.834;4.718;2022-09-14T08:47:12;9.23;;;3.70;;
13927;SDS011;7036;50.834;4.718;2022-09-14T08:49:45;5.17;;;3.67;;
13927;SDS011;7036;50.834;4.718;2022-09-14T08:52:30;9.43;;;4.70;;
13927;SDS011;7036;50.834;4.718;2022-09-14T08:54:59;14.60;;;5.10;;
13927;SDS011;7036;50.834;4.718;2022-09-14T08:58:15;7.80;;;4.03;;
13927;SDS011;7036;50.834;4.718;2022-09-14T09:00:13;8.83;;;4.03;;
13927;SDS011;7036;50.834;4.718;2022-09-14T09:02:51;20.93;;;3.87;;
13927;SDS011;7036;50.834;4.718;2022-09-14T09:08:05;11.23;;;3.20;;
13927;SDS011;7036;50.834;4.718;2022-09-14T09:10:29;9.13;;;3.30;;
13927;SDS011;7036;50.834;4.718;2022-09-14T09:12:57;9.85;;;3.20;;
13927;SDS011;7036;50.834;4.718;2022-09-14T09:15:29;18.20;;;4.35;;
13927;SDS011;7036;50.834;4.718;2022-09-14T09:18:03;15.63;;;3.80;;
13927;SDS011;7036;50.834;4.718;2022-09-14T09:20:35;21.70;;;4.83;;
13927;SDS011;7036;50.834;4.718;2022-09-14T09:23:10;10.10;;;3.80;;
13927;SDS011;7036;50.834;4.718;2022-09-14T09:25:47;16.07;;;4.23;;
13927;SDS011;7036;50.834;4.718;2022-09-14T09:28:17;10.97;;;3.40;;
13927;SDS011;7036;50.834;4.718;2022-09-14T09:30:44;15.80;;;3.67;;
13927;SDS011;7036;50.834;4.718;2022-09-14T09:33:14;11.02;;;3.53;;
13927;SDS011;7036;50.834;4.718;2022-09-14T09:35:40;12.77;;;3.03;;
13927;SDS011;7036;50.834;4.718;2022-09-14T09:38:12;10.23;;;2.90;;
13927;SDS011;7036;50.834;4.718;2022-09-14T09:40:39;13.37;;;3.57;;
13927;SDS011;7036;50.834;4.718;2022-09-14T09:43:06;15.13;;;3.40;;
13927;SDS011;7036;50.834;4.718;2022-09-14T09:48:15;6.13;;;2.63;;
13927;SDS011;7036;50.834;4.718;2022-09-14T09:51:42;6.73;;;2.90;;
13927;SDS011;7036;50.834;4.718;2022-09-14T09:53:26;7.87;;;2.30;;
13927;SDS011;7036;50.834;4.718;2022-09-14T09:55:53;9.43;;;2.90;;
13927;SDS011;7036;50.834;4.718;2022-09-14T10:00:58;11.30;;;2.53;;
13927;SDS011;7036;50.834;4.718;2022-09-14T10:03:29;6.23;;;2.80;;
13927;SDS011;7036;50.834;4.718;2022-09-14T10:06:00;4.67;;;2.17;;
13927;SDS011;7036;50.834;4.718;2022-09-14T10:08:26;8.73;;;2.30;;
13927;SDS011;7036;50.834;4.718;2022-09-14T10:10:53;5.30;;;2.27;;
13927;SDS011;7036;50.834;4.718;2022-09-14T10:13:33;4.93;;;1.93;;
13927;SDS011;7036;50.834;4.718;2022-09-14T10:18:32;4.07;;;2.00;;
13927;SDS011;7036;50.834;4.718;2022-09-14T10:23:29;3.00;;;1.50;;
13927;SDS011;7036;50.834;4.718;2022-09-14T10:26:37;7.27;;;2.00;;
13927;SDS011;7036;50.834;4.718;2022-09-14T10:28:38;9.67;;;2.00;;
13927;SDS011;7036;50.834;4.718;2022-09-14T10:33:35;10.00;;;1.70;;
13927;SDS011;7036;50.834;4.718;2022-09-14T10:36:09;2.83;;;1.60;;
13927;SDS011;7036;50.834;4.718;2022-09-14T10:38:59;6.23;;;1.97;;
13927;SDS011;7036;50.834;4.718;2022-09-14T10:41:25;9.27;;;1.80;;
13927;SDS011;7036;50.834;4.718;2022-09-14T10:49:39;4.77;;;1.87;;
13927;SDS011;7036;50.834;4.718;2022-09-14T10:58:00;3.33;;;2.33;;
13927;SDS011;7036;50.834;4.718;2022-09-14T11:00:24;3.50;;;2.23;;
13927;SDS011;7036;50.834;4.718;2022-09-14T11:02:58;4.10;;;1.87;;
13927;SDS011;7036;50.834;4.718;2022-09-14T11:05:29;2.93;;;2.03;;
13927;SDS011;7036;50.834;4.718;2022-09-14T11:08:06;6.37;;;2.10;;
13927;SDS011;7036;50.834;4.718;2022-09-14T11:13:23;8.77;;;2.27;;
13927;SDS011;7036;50.834;4.718;2022-09-14T11:19:01;17.50;;;2.27;;
13927;SDS011;7036;50.834;4.718;2022-09-14T11:24:12;13.73;;;2.60;;
13927;SDS011;7036;50.834;4.718;2022-09-14T11:27:02;20.73;;;2.70;;
13927;SDS011;7036;50.834;4.718;2022-09-14T11:29:41;10.30;;;2.23;;
13927;SDS011;7036;50.834;4.718;2022-09-14T11:32:10;16.17;;;2.23;;
13927;SDS011;7036;50.834;4.718;2022-09-14T11:34:37;13.23;;;2.10;;
13927;SDS011;7036;50.834;4.718;2022-09-14T11:37:13;15.03;;;2.53;;
13927;SDS011;7036;50.834;4.718;2022-09-14T11:39:47;9.80;;;2.17;;
13927;SDS011;7036;50.834;4.718;2022-09-14T11:42:16;10.23;;;2.03;;
13927;SDS011;7036;50.834;4.718;2022-09-14T11:44:46;4.33;;;1.83;;
13927;SDS011;7036;50.834;4.718;2022-09-14T11:47:14;12.68;;;2.38;;
13927;SDS011;7036;50.834;4.718;2022-09-14T11:49:45;10.10;;;2.15;;
13927;SDS011;7036;50.834;4.718;2022-09-14T11:52:27;6.23;;;1.37;;
13927;SDS011;7036;50.834;4.718;2022-09-14T11:54:52;10.63;;;2.20;;
13927;SDS011;7036;50.834;4.718;2022-09-14T11:57:26;5.13;;;1.93;;
13927;SDS011;7036;50.834;4.718;2022-09-14T11:59:53;9.93;;;2.00;;
13927;SDS011;7036;50.834;4.718;2022-09-14T12:12:43;4.00;;;1.97;;
13927;SDS011;7036;50.834;4.718;2022-09-14T12:17:52;4.13;;;1.53;;
13927;SDS011;7036;50.834;4.718;2022-09-14T12:31:30;13.87;;;2.73;;
13927;SDS011;7036;50.834;4.718;2022-09-14T12:44:31;7.50;;;2.60;;
13927;SDS011;7036;50.834;4.718;2022-09-14T12:49:48;14.87;;;4.17;;
13927;SDS011;7036;50.834;4.718;2022-09-14T12:52:18;5.17;;;3.80;;
13927;SDS011;7036;50.834;4.718;2022-09-14T12:57:33;5.50;;;3.97;;
13927;SDS011;7036;50.834;4.718;2022-09-14T13:05:24;11.50;;;3.90;;
13927;SDS011;7036;50.834;4.718;2022-09-14T13:07:50;22.90;;;3.87;;
13927;SDS011;7036;50.834;4.718;2022-09-14T13:10:19;15.57;;;4.65;;
13927;SDS011;7036;50.834;4.718;2022-09-14T13:12:46;8.27;;;4.37;;
13927;SDS011;7036;50.834;4.718;2022-09-14T13:17:57;7.80;;;4.00;;
13927;SDS011;7036;50.834;4.718;2022-09-14T13:20:29;10.37;;;3.80;;
13927;SDS011;7036;50.834;4.718;2022-09-14T13:22:54;8.93;;;3.20;;
13927;SDS011;7036;50.834;4.718;2022-09-14T13:25:28;10.38;;;3.05;;
13927;SDS011;7036;50.834;4.718;2022-09-14T13:27:52;6.90;;;4.00;;
13927;SDS011;7036;50.834;4.718;2022-09-14T13:30:23;8.57;;;3.67;;
13927;SDS011;7036;50.834;4.718;2022-09-14T13:32:50;15.60;;;5.07;;
13927;SDS011;7036;50.834;4.718;2022-09-14T13:37:44;14.80;;;5.50;;
13927;SDS011;7036;50.834;4.718;2022-09-14T13:40:11;10.07;;;4.57;;
13927;SDS011;7036;50.834;4.718;2022-09-14T13:42:39;9.73;;;4.60;;
13927;SDS011;7036;50.834;4.718;2022-09-14T13:45:05;9.93;;;4.85;;
13927;SDS011;7036;50.834;4.718;2022-09-14T13:47:32;19.73;;;4.63;;
13927;SDS011;7036;50.834;4.718;2022-09-14T13:49:59;11.23;;;4.57;;
13927;SDS011;7036;50.834;4.718;2022-09-14T13:52:33;9.47;;;4.43;;
13927;SDS011;7036;50.834;4.718;2022-09-14T13:58:02;6.73;;;3.60;;
13927;SDS011;7036;50.834;4.718;2022-09-14T14:00:18;6.33;;;4.07;;
13927;SDS011;7036;50.834;4.718;2022-09-14T14:02:48;17.57;;;4.13;;
13927;SDS011;7036;50.834;4.718;2022-09-14T14:05:20;9.07;;;3.63;;
13927;SDS011;7036;50.834;4.718;2022-09-14T14:07:48;7.97;;;4.17;;
13927;SDS011;7036;50.834;4.718;2022-09-14T14:10:48;20.20;;;5.77;;
13927;SDS011;7036;50.834;4.718;2022-09-14T14:12:48;15.47;;;4.87;;
13927;SDS011;7036;50.834;4.718;2022-09-14T14:17:42;9.77;;;4.77;;
13927;SDS011;7036;50.834;4.718;2022-09-14T14:22:55;12.40;;;4.10;;
13927;SDS011;7036;50.834;4.718;2022-09-14T14:25:31;11.35;;;4.50;;
13927;SDS011;7036;50.834;4.718;2022-09-14T14:28:01;12.77;;;6.57;;
13927;SDS011;7036;50.834;4.718;2022-09-14T14:30:27;8.90;;;6.20;;
13927;SDS011;7036;50.834;4.718;2022-09-14T14:32:55;11.38;;;5.60;;
13927;SDS011;7036;50.834;4.718;2022-09-14T14:35:24;6.70;;;4.80;;
13927;SDS011;7036;50.834;4.718;2022-09-14T14:37:49;6.27;;;4.30;;
13927;SDS011;7036;50.834;4.718;2022-09-14T14:40:16;8.70;;;4.47;;
13927;SDS011;7036;50.834;4.718;2022-09-14T14:42:42;5.17;;;4.67;;
13927;SDS011;7036;50.834;4.718;2022-09-14T14:45:13;7.30;;;4.40;;
13927;SDS011;7036;50.834;4.718;2022-09-14T14:47:48;9.37;;;4.93;;
13927;SDS011;7036;50.834;4.718;2022-09-14T14:50:19;10.27;;;4.20;;
13927;SDS011;7036;50.834;4.718;2022-09-14T14:52:45;12.88;;;4.63;;
13927;SDS011;7036;50.834;4.718;2022-09-14T14:55:12;8.53;;;4.10;;
13927;SDS011;7036;50.834;4.718;2022-09-14T14:57:39;6.60;;;4.10;;
13927;SDS011;7036;50.834;4.718;2022-09-14T15:00:10;7.17;;;4.10;;
13927;SDS011;7036;50.834;4.718;2022-09-14T15:02:33;5.93;;;3.83;;
13927;SDS011;7036;50.834;4.718;2022-09-14T15:05:00;5.13;;;3.43;;
13927;SDS011;7036;50.834;4.718;2022-09-14T15:07:27;5.43;;;3.50;;
13927;SDS011;7036;50.834;4.718;2022-09-14T15:09:55;7.57;;;3.67;;
13927;SDS011;7036;50.834;4.718;2022-09-14T15:12:21;7.30;;;3.00;;
13927;SDS011;7036;50.834;4.718;2022-09-14T15:14:49;5.45;;;2.83;;
13927;SDS011;7036;50.834;4.718;2022-09-14T15:17:16;3.53;;;3.17;;
13927;SDS011;7036;50.834;4.718;2022-09-14T15:19:42;4.43;;;2.90;;
13927;SDS011;7036;50.834;4.718;2022-09-14T15:22:10;4.60;;;3.05;;
13927;SDS011;7036;50.834;4.718;2022-09-14T15:24:37;3.33;;;2.60;;
13927;SDS011;7036;50.834;4.718;2022-09-14T15:27:04;4.07;;;2.80;;
13927;SDS011;7036;50.834;4.718;2022-09-14T15:29:31;6.83;;;2.93;;
13927;SDS011;7036;50.834;4.718;2022-09-14T15:31:58;3.90;;;2.20;;
13927;SDS011;7036;50.834;4.718;2022-09-14T15:34:25;6.90;;;3.20;;
13927;SDS011;7036;50.834;4.718;2022-09-14T15:36:53;3.58;;;2.85;;
13927;SDS011;7036;50.834;4.718;2022-09-14T15:39:22;3.73;;;2.40;;
13927;SDS011;7036;50.834;4.718;2022-09-14T15:41:47;7.00;;;2.40;;
13927;SDS011;7036;50.834;4.718;2022-09-14T15:44:14;11.13;;;3.97;;
13927;SDS011;7036;50.834;4.718;2022-09-14T15:46:41;10.75;;;2.47;;
13927;SDS011;7036;50.834;4.718;2022-09-14T15:49:12;7.28;;;2.80;;
13927;SDS011;7036;50.834;4.718;2022-09-14T15:51:42;5.97;;;2.93;;
13927;SDS011;7036;50.834;4.718;2022-09-14T15:54:08;8.70;;;3.40;;
13927;SDS011;7036;50.834;4.718;2022-09-14T15:56:35;7.27;;;3.07;;
13927;SDS011;7036;50.834;4.718;2022-09-14T15:59:02;3.30;;;2.53;;
13927;SDS011;7036;50.834;4.718;2022-09-14T16:01:29;3.03;;;2.70;;
13927;SDS011;7036;50.834;4.718;2022-09-14T16:03:59;5.67;;;3.07;;
13927;SDS011;7036;50.834;4.718;2022-09-14T16:06:24;15.77;;;3.47;;
13927;SDS011;7036;50.834;4.718;2022-09-14T16:08:52;9.50;;;3.07;;
13927;SDS011;7036;50.834;4.718;2022-09-14T16:11:19;6.63;;;4.00;;
13927;SDS011;7036;50.834;4.718;2022-09-14T16:13:48;7.88;;;3.53;;
13927;SDS011;7036;50.834;4.718;2022-09-14T16:16:14;8.30;;;3.33;;
13927;SDS011;7036;50.834;4.718;2022-09-14T16:18:41;3.73;;;2.63;;
13927;SDS011;7036;50.834;4.718;2022-09-14T16:21:09;3.73;;;2.83;;
13927;SDS011;7036;50.834;4.718;2022-09-14T16:23:35;5.30;;;3.07;;
13927;SDS011;7036;50.834;4.718;2022-09-14T16:26:08;7.17;;;3.43;;
13927;SDS011;7036;50.834;4.718;2022-09-14T16:28:35;8.33;;;3.40;;
13927;SDS011;7036;50.834;4.718;2022-09-14T16:31:09;9.67;;;4.60;;
13927;SDS011;7036;50.834;4.718;2022-09-14T16:33:36;7.90;;;3.73;;
13927;SDS011;7036;50.834;4.718;2022-09-14T16:36:03;6.53;;;4.17;;
13927;SDS011;7036;50.834;4.718;2022-09-14T16:38:29;6.60;;;3.70;;
13927;SDS011;7036;50.834;4.718;2022-09-14T16:40:59;5.60;;;4.97;;
13927;SDS011;7036;50.834;4.718;2022-09-14T16:43:25;8.83;;;4.93;;
13927;SDS011;7036;50.834;4.718;2022-09-14T16:46:05;7.17;;;5.07;;
13927;SDS011;7036;50.834;4.718;2022-09-14T16:48:31;6.30;;;5.70;;
13927;SDS011;7036;50.834;4.718;2022-09-14T16:50:59;7.25;;;5.97;;
13927;SDS011;7036;50.834;4.718;2022-09-14T16:53:26;5.43;;;4.87;;
13927;SDS011;7036;50.834;4.718;2022-09-14T16:55:58;7.37;;;5.20;;
13927;SDS011;7036;50.834;4.718;2022-09-14T16:58:19;7.23;;;6.17;;
13927;SDS011;7036;50.834;4.718;2022-09-14T17:00:46;7.07;;;5.90;;
13927;SDS011;7036;50.834;4.718;2022-09-14T17:03:13;9.63;;;5.60;;
13927;SDS011;7036;50.834;4.718;2022-09-14T17:05:40;12.23;;;6.87;;
13927;SDS011;7036;50.834;4.718;2022-09-14T17:08:07;9.18;;;7.72;;
13927;SDS011;7036;50.834;4.718;2022-09-14T17:10:34;13.73;;;6.87;;
13927;SDS011;7036;50.834;4.718;2022-09-14T17:13:01;11.13;;;6.47;;
13927;SDS011;7036;50.834;4.718;2022-09-14T17:15:29;13.37;;;8.53;;
13927;SDS011;7036;50.834;4.718;2022-09-14T17:17:56;8.63;;;7.03;;